Time;durP1;ratioP1;P1;durP2;ratioP2;P2;SDS_P1;SDS_P2;PMS_P1;PMS_P2;Temp;Humidity;BMP_temperature;BMP_pressure;BME280_temperature;BME280_humidity;BME280_pressure;Samples;Min_cycle;Max_cycle;Signal;HPM_P1;HPM_P2
2022/11/15 00:00:47;;;;;;;46.87;28.23;;;;;;;8.05;100.00;100099.88;5090369;28;20209;-60
2022/11/15 00:03:15;;;;;;;48.00;27.47;;;;;;;7.83;100.00;100094.03;5090223;28;20199;-58
2022/11/15 00:05:42;;;;;;;45.47;26.27;;;;;;;7.85;100.00;100104.34;5090440;28;20195;-59
2022/11/15 00:08:10;;;;;;;44.33;26.23;;;;;;;7.86;100.00;100106.94;5090492;28;20225;-58
2022/11/15 00:10:37;;;;;;;46.30;26.30;;;;;;;7.83;100.00;100095.75;5089852;28;20230;-58
2022/11/15 00:13:06;;;;;;;43.80;26.60;;;;;;;7.80;100.00;100104.38;5090253;28;20202;-57
2022/11/15 00:15:36;;;;;;;42.23;25.53;;;;;;;7.80;100.00;100109.56;5090035;28;20213;-58
2022/11/15 00:18:04;;;;;;;53.57;26.57;;;;;;;7.65;100.00;100089.88;5090061;28;20321;-57
2022/11/15 00:20:31;;;;;;;46.57;27.40;;;;;;;7.76;100.00;100102.72;5090305;28;20588;-57
2022/11/15 00:22:58;;;;;;;47.93;26.87;;;;;;;7.76;100.00;100102.72;5089892;28;20196;-56
2022/11/15 00:25:25;;;;;;;49.43;27.50;;;;;;;7.68;100.00;100099.31;5089968;28;20314;-56
2022/11/15 00:27:56;;;;;;;48.20;27.20;;;;;;;7.65;100.00;100100.22;5089841;28;20381;-56
2022/11/15 00:30:23;;;;;;;43.17;25.27;;;;;;;7.64;100.00;100103.66;5089717;28;20209;-57
2022/11/15 00:32:50;;;;;;;44.00;26.77;;;;;;;7.52;100.00;100072.75;5089939;28;20277;-58
2022/11/15 00:35:19;;;;;;;50.17;27.10;;;;;;;7.71;100.00;100104.47;5090003;28;20206;-57
2022/11/15 00:37:47;;;;;;;46.03;27.03;;;;;;;7.76;100.00;100102.72;5089862;28;20223;-56
2022/11/15 00:40:15;;;;;;;48.43;27.10;;;;;;;7.77;100.00;100099.25;5089519;28;20234;-57
2022/11/15 00:42:42;;;;;;;41.70;26.27;;;;;;;7.80;100.00;100104.38;5088740;28;20195;-57
2022/11/15 00:45:10;;;;;;;45.17;25.67;;;;;;;7.79;100.00;100092.31;5089600;28;20198;-56
2022/11/15 00:47:37;;;;;;;43.03;25.33;;;;;;;7.82;100.00;100094.91;5089588;28;20286;-57
2022/11/15 00:50:05;;;;;;;43.50;24.60;;;;;;;7.85;100.00;100097.47;5089820;28;20669;-57
2022/11/15 00:52:33;;;;;;;44.80;25.50;;;;;;;7.88;100.00;100087.09;5089599;28;20192;-57
2022/11/15 00:55:00;;;;;;;39.33;23.40;;;;;;;7.84;100.00;100088.00;5089531;28;20203;-57
2022/11/15 00:57:27;;;;;;;42.53;23.07;;;;;;;7.78;100.00;100085.47;5089241;28;20582;-57
2022/11/15 00:59:54;;;;;;;43.17;24.93;;;;;;;7.83;100.00;100082.84;5089319;28;20197;-56
2022/11/15 01:02:21;;;;;;;41.70;25.00;;;;;;;7.84;100.00;100087.13;5089688;28;20203;-56
2022/11/15 01:04:48;;;;;;;48.67;25.70;;;;;;;7.72;100.00;100079.47;5089664;28;20586;-57
2022/11/15 01:07:15;;;;;;;42.97;25.60;;;;;;;7.71;100.00;100083.78;5089429;28;20199;-58
2022/11/15 01:09:43;;;;;;;41.40;24.87;;;;;;;7.77;100.00;100077.72;5089481;28;20191;-57
2022/11/15 01:12:10;;;;;;;43.67;26.67;;;;;;;7.67;100.00;100084.72;5089155;28;20625;-57
2022/11/15 01:14:37;;;;;;;47.60;25.73;;;;;;;7.64;100.00;100076.97;5089345;28;20199;-56
2022/11/15 01:17:03;;;;;;;45.10;25.87;;;;;;;7.64;100.00;100076.97;5088682;28;20205;-57
2022/11/15 01:19:30;;;;;;;45.40;25.83;;;;;;;7.77;100.00;100081.19;5049077;28;20201;-57
2022/11/15 01:21:57;;;;;;;45.13;27.07;;;;;;;7.85;100.00;100071.63;5049533;28;20677;-58
2022/11/15 01:24:24;;;;;;;48.33;25.80;;;;;;;7.84;100.00;100059.56;5048960;28;20207;-58
2022/11/15 01:26:52;;;;;;;48.80;26.23;;;;;;;7.87;100.00;100064.72;5049103;28;20207;-58
2022/11/15 01:29:19;;;;;;;51.67;27.47;;;;;;;7.92;100.00;100068.09;5049345;28;20193;-57
2022/11/15 01:31:46;;;;;;;47.83;27.57;;;;;;;7.97;100.00;100071.50;5045193;28;20197;-57
2022/11/15 01:34:14;;;;;;;45.03;27.37;;;;;;;8.00;100.00;100068.91;5029123;28;20212;-57
2022/11/15 01:36:41;;;;;;;41.73;26.47;;;;;;;7.99;100.00;100068.91;5028997;28;20197;-57
2022/11/15 01:39:09;;;;;;;43.17;26.70;;;;;;;7.97;100.00;100060.31;5029365;28;20225;-57
2022/11/15 01:41:36;;;;;;;42.73;26.07;;;;;;;7.92;100.00;100062.06;5029043;28;20255;-56
2022/11/15 01:44:38;;;;;;;51.90;27.47;;;;;;;8.06;100.00;100064.53;5029091;28;20200;-57
2022/11/15 01:47:10;;;;;;;43.13;26.07;;;;;;;8.07;100.00;100055.91;5029038;28;20250;-59
2022/11/15 01:49:41;;;;;;;46.60;26.73;;;;;;;8.11;100.00;100052.44;5028645;28;20201;-57
2022/11/15 01:52:11;;;;;;;44.77;25.57;;;;;;;8.10;100.00;100054.16;5028833;28;20201;-56
2022/11/15 01:54:38;;;;;;;46.87;25.37;;;;;;;8.08;100.00;100058.47;5032404;28;20193;-58
2022/11/15 01:57:09;;;;;;;42.73;25.53;;;;;;;8.06;100.00;100059.34;5032499;28;20212;-56
2022/11/15 01:59:38;;;;;;;45.10;25.73;;;;;;;8.03;100.00;100055.06;5032551;28;20193;-55
2022/11/15 02:02:06;;;;;;;40.80;25.37;;;;;;;8.05;100.00;100052.47;5032438;28;20209;-57
2022/11/15 02:04:34;;;;;;;41.53;25.27;;;;;;;8.10;100.00;100061.91;5032704;28;20222;-57
2022/11/15 02:07:04;;;;;;;46.20;25.53;;;;;;;8.13;100.00;100058.41;5032540;28;20209;-56
2022/11/15 02:09:31;;;;;;;42.47;24.63;;;;;;;8.08;100.00;100063.66;5032209;28;20196;-57
2022/11/15 02:12:00;;;;;;;41.33;24.43;;;;;;;8.08;100.00;100057.63;5032403;28;20199;-57
2022/11/15 02:14:28;;;;;;;40.13;24.37;;;;;;;8.10;100.00;100055.88;5032387;28;20217;-57
2022/11/15 02:17:04;;;;;;;47.40;26.40;;;;;;;8.09;100.00;100065.38;5032164;28;20228;-57
2022/11/15 02:19:55;;;;;;;40.37;24.97;;;;;;;8.13;100.00;100054.09;5032235;28;20221;-57
2022/11/15 02:22:36;;;;;;;39.43;23.73;;;;;;;8.20;100.00;100052.31;5032197;28;20201;-57
2022/11/15 02:25:12;;;;;;;39.43;23.33;;;;;;;8.18;100.00;100056.66;5031960;28;20208;-57
2022/11/15 02:28:10;;;;;;;40.93;24.53;;;;;;;8.26;100.00;100060.00;5031885;28;20197;-58
2022/11/15 02:30:44;;;;;;;44.47;24.17;;;;;;;8.25;100.00;100053.13;5031782;28;20201;-59
2022/11/15 02:33:22;;;;;;;40.10;23.70;;;;;;;8.17;100.00;100052.34;5031787;28;20584;-58
2022/11/15 02:35:58;;;;;;;39.80;24.27;;;;;;;8.22;100.00;100055.75;5031746;28;20201;-59
2022/11/15 02:38:32;;;;;;;44.70;25.37;;;;;;;8.18;100.00;100051.47;5031915;28;20225;-58
2022/11/15 02:41:04;;;;;;;42.57;25.10;;;;;;;8.17;100.00;100037.69;5031676;28;20193;-56
2022/11/15 02:47:12;;;;;;;39.37;24.33;;;;;;;8.27;100.00;100038.44;5031730;28;20216;-56
2022/11/15 02:49:15;;;;;;;44.13;24.40;;;;;;;8.26;100.00;100042.75;5031393;28;20202;-57
2022/11/15 02:51:45;;;;;;;42.80;23.53;;;;;;;8.19;100.00;100035.09;5031427;28;20201;-57
2022/11/15 02:54:15;;;;;;;42.30;24.93;;;;;;;8.22;100.00;100041.09;5031353;28;20198;-58
2022/11/15 02:56:43;;;;;;;38.33;23.57;;;;;;;8.25;100.00;100042.78;5031443;28;20201;-59
2022/11/15 02:59:25;;;;;;;38.97;23.87;;;;;;;8.30;100.00;100038.41;5031450;28;20617;-59
2022/11/15 03:02:07;;;;;;;38.37;24.57;;;;;;;8.29;100.00;100041.88;5031497;28;20201;-58
2022/11/15 03:04:44;;;;;;;43.23;25.57;;;;;;;8.33;100.00;100033.25;5030046;28;20207;-59
2022/11/15 03:07:17;;;;;;;47.60;25.53;;;;;;;8.24;100.00;100034.16;5031203;28;20236;-57
2022/11/15 03:09:51;;;;;;;40.53;23.90;;;;;;;8.15;100.00;100042.00;5031207;28;20207;-57
2022/11/15 03:12:27;;;;;;;41.50;24.37;;;;;;;8.17;100.00;100037.69;5031261;28;20203;-56
2022/11/15 03:14:59;;;;;;;48.37;25.27;;;;;;;8.23;100.00;100039.38;5031081;28;20701;-57
2022/11/15 03:17:31;;;;;;;41.07;24.17;;;;;;;8.29;100.00;100039.28;5036539;28;20585;-57
2022/11/15 03:20:00;;;;;;;42.23;25.17;;;;;;;8.26;100.00;100042.75;5070930;28;20231;-57
2022/11/15 03:22:29;;;;;;;43.70;25.33;;;;;;;8.25;100.00;100042.78;5070805;28;20202;-57
2022/11/15 03:25:00;;;;;;;43.17;25.17;;;;;;;8.19;100.00;100040.25;5071123;28;20200;-57
2022/11/15 03:27:33;;;;;;;43.57;25.10;;;;;;;8.17;100.00;100013.56;5070621;28;20204;-56
2022/11/15 03:30:03;;;;;;;49.43;25.07;;;;;;;8.25;100.00;100043.63;5070896;28;20191;-56
2022/11/15 03:32:34;;;;;;;44.67;25.50;;;;;;;8.26;100.00;100036.72;5070793;28;20207;-57
2022/11/15 03:35:03;;;;;;;42.80;24.83;;;;;;;8.21;100.00;100026.47;5070680;28;20192;-57
2022/11/15 03:37:36;;;;;;;40.40;23.87;;;;;;;8.16;100.00;100017.03;5070607;28;20200;-56
2022/11/15 03:40:04;;;;;;;43.33;24.70;;;;;;;8.21;100.00;100030.78;5070458;28;20282;-58
2022/11/15 03:42:36;;;;;;;43.80;23.53;;;;;;;8.26;100.00;100023.78;5070487;28;20200;-58
2022/11/15 03:45:09;;;;;;;43.83;24.53;;;;;;;8.22;100.00;100023.00;5070508;28;20200;-59
2022/11/15 03:47:40;;;;;;;44.20;23.70;;;;;;;8.25;100.00;100016.91;5070153;28;20195;-58
2022/11/15 03:50:11;;;;;;;37.43;24.00;;;;;;;8.29;100.00;100018.59;5070316;28;20219;-58
2022/11/15 03:52:38;;;;;;;43.63;24.70;;;;;;;8.29;100.00;100006.53;5070019;28;20282;-56
2022/11/15 03:55:09;;;;;;;41.77;24.43;;;;;;;8.31;100.00;100011.69;5070067;28;20204;-57
2022/11/15 03:57:36;;;;;;;42.77;23.87;;;;;;;8.40;100.00;100009.00;5070062;28;20199;-57
2022/11/15 04:00:04;;;;;;;39.90;24.20;;;;;;;8.37;100.00;100003.88;5070198;28;20227;-58
2022/11/15 04:02:31;;;;;;;44.00;25.00;;;;;;;8.32;100.00;100000.50;5069942;28;20192;-57
2022/11/15 04:04:59;;;;;;;38.17;24.17;;;;;;;8.27;100.00;99994.47;5069773;28;20196;-59
2022/11/15 04:07:26;;;;;;;42.30;23.47;;;;;;;8.25;100.00;100003.97;5069872;28;20290;-58
2022/11/15 04:10:05;;;;;;;38.27;23.57;;;;;;;8.24;100.00;99997.13;5069900;28;20202;-58
2022/11/15 04:12:33;;;;;;;41.17;24.10;;;;;;;8.22;100.00;99994.56;5070128;28;20635;-57
2022/11/15 04:15:10;;;;;;;41.67;22.57;;;;;;;8.17;100.00;99991.16;5055031;28;20224;-56
2022/11/15 04:17:39;;;;;;;37.57;22.57;;;;;;;8.18;100.00;99986.84;5066604;28;20627;-57
2022/11/15 04:25:41;;;;;;;43.77;24.23;;;;;;;8.20;100.00;99977.34;5089398;28;20226;-56
2022/11/15 04:28:07;;;;;;;38.20;23.60;;;;;;;8.30;100.00;99981.53;5089421;28;20218;-58
2022/11/15 04:30:34;;;;;;;38.73;23.63;;;;;;;8.32;100.00;99983.25;5089114;28;20203;-58
2022/11/15 04:33:01;;;;;;;38.77;22.77;;;;;;;8.24;100.00;99979.03;5087540;28;20681;-57
2022/11/15 04:35:30;;;;;;;39.60;21.67;;;;;;;8.15;100.00;99966.19;5087347;28;20202;-57
2022/11/15 04:37:57;;;;;;;37.53;22.70;;;;;;;8.18;100.00;99971.31;5085895;28;20198;-58
2022/11/15 04:40:24;;;;;;;36.73;21.80;;;;;;;8.12;100.00;99992.09;5087428;28;20213;-58
2022/11/15 04:42:51;;;;;;;38.67;22.80;;;;;;;7.98;100.00;99980.16;5083746;28;20661;-58
2022/11/15 04:45:17;;;;;;;34.23;21.63;;;;;;;8.01;100.00;99989.63;5085305;28;20201;-58
2022/11/15 04:47:45;;;;;;;37.33;22.07;;;;;;;7.91;100.00;99964.72;5087010;28;20594;-57
2022/11/15 04:50:13;;;;;;;38.57;22.10;;;;;;;8.09;100.00;99984.34;5087953;28;20248;-57
2022/11/15 04:52:43;;;;;;;36.87;21.90;;;;;;;8.12;100.00;99982.59;5085119;28;20194;-57
2022/11/15 04:55:11;;;;;;;34.57;21.67;;;;;;;8.07;100.00;99983.50;5087394;28;20194;-57
2022/11/15 04:57:38;;;;;;;39.93;21.37;;;;;;;8.05;100.00;99972.31;5086589;28;20206;-57
2022/11/15 05:00:07;;;;;;;34.70;20.57;;;;;;;7.97;100.00;99972.44;5089372;28;20222;-57
2022/11/15 05:05:15;;;;;;;36.40;20.43;;;;;;;7.81;100.00;99976.88;5066308;28;20680;-56
2022/11/15 05:07:43;;;;;;;31.57;19.47;;;;;;;7.85;100.00;99981.16;5089175;28;20203;-57
2022/11/15 05:10:10;;;;;;;29.47;19.63;;;;;;;7.94;100.00;99978.47;5088477;28;20585;-55
2022/11/15 05:12:37;;;;;;;31.27;20.00;;;;;;;8.04;100.00;99976.66;5089550;28;20301;-55
2022/11/15 05:15:05;;;;;;;32.07;20.43;;;;;;;8.08;100.00;99975.75;5089369;28;20195;-59
2022/11/15 05:17:32;;;;;;;29.60;20.17;;;;;;;8.02;100.00;99974.06;5089040;28;20239;-54
2022/11/15 05:19:59;;;;;;;32.27;18.47;;;;;;;8.13;100.00;99988.59;5089143;28;20254;-57
2022/11/15 05:22:26;;;;;;;33.80;20.40;;;;;;;8.10;100.00;99986.94;5089098;28;20202;-55
2022/11/15 05:24:54;;;;;;;31.33;19.93;;;;;;;8.08;100.00;99974.88;5089320;28;20713;-53
2022/11/15 05:27:21;;;;;;;33.10;20.50;;;;;;;8.23;100.00;99978.16;5089501;28;20199;-54
2022/11/15 05:29:48;;;;;;;37.50;21.70;;;;;;;8.09;100.00;99976.59;5092135;28;20200;-53
2022/11/15 05:32:15;;;;;;;36.73;21.23;;;;;;;8.21;100.00;99976.47;5093154;28;20191;-53
2022/11/15 05:34:42;;;;;;;37.67;21.53;;;;;;;8.27;100.00;99982.41;5093026;28;20199;-53
2022/11/15 05:37:08;;;;;;;40.77;21.80;;;;;;;8.20;100.00;99972.16;5093371;28;20203;-53
2022/11/15 05:39:35;;;;;;;32.50;20.23;;;;;;;8.36;100.00;99984.06;5092713;28;20219;-52
2022/11/15 05:42:09;;;;;;;30.70;20.73;;;;;;;8.42;100.00;99985.72;5092964;28;20203;-53
2022/11/15 05:44:38;;;;;;;33.57;20.07;;;;;;;8.47;100.00;99989.09;5092677;28;20207;-54
2022/11/15 05:47:09;;;;;;;33.50;19.20;;;;;;;8.60;100.00;99982.88;5092984;28;20723;-54
2022/11/15 05:49:39;;;;;;;32.90;18.93;;;;;;;8.62;100.00;99986.31;5092315;28;20210;-54
2022/11/15 05:52:08;;;;;;;27.13;17.83;;;;;;;8.66;100.00;99991.44;5092332;28;20199;-52
2022/11/15 05:54:37;;;;;;;33.53;17.10;;;;;;;8.80;100.00;99995.56;5092316;28;20209;-53
2022/11/15 05:57:06;;;;;;;26.77;17.63;;;;;;;8.84;100.00;99997.22;5092320;28;20191;-53
2022/11/15 05:59:35;;;;;;;26.37;17.30;;;;;;;8.86;100.00;99998.91;5092425;28;20223;-53
2022/11/15 06:02:02;;;;;;;36.10;18.40;;;;;;;8.80;100.00;99999.03;5092359;28;20232;-53
2022/11/15 06:04:29;;;;;;;33.33;18.10;;;;;;;8.87;100.00;100004.97;5092654;28;20374;-53
2022/11/15 06:06:56;;;;;;;37.37;19.57;;;;;;;8.92;100.00;100011.75;5092511;28;20582;-53
2022/11/15 06:09:23;;;;;;;34.93;19.47;;;;;;;8.93;100.00;100010.88;5092563;28;20195;-53
2022/11/15 06:11:50;;;;;;;38.37;20.93;;;;;;;9.05;100.00;100010.72;5092302;28;20199;-52
2022/11/15 06:14:18;;;;;;;32.60;19.43;;;;;;;9.01;100.00;100005.63;5092158;28;20601;-52
2022/11/15 06:16:45;;;;;;;36.43;20.13;;;;;;;9.10;100.00;100005.47;5092299;28;20201;-53
2022/11/15 06:19:12;;;;;;;38.50;18.37;;;;;;;8.98;100.00;100008.25;5092052;28;20237;-52
2022/11/15 06:21:39;;;;;;;29.97;17.90;;;;;;;9.08;100.00;100009.81;5092040;28;20201;-53
2022/11/15 06:24:07;;;;;;;29.30;17.07;;;;;;;9.06;100.00;100007.25;5092201;28;20760;-54
2022/11/15 06:26:34;;;;;;;28.00;17.27;;;;;;;9.13;100.00;100010.63;5092045;28;20198;-54
2022/11/15 06:29:01;;;;;;;30.87;17.97;;;;;;;9.19;100.00;100007.91;5092066;28;20582;-52
2022/11/15 06:31:29;;;;;;;25.57;16.40;;;;;;;9.08;100.00;100012.41;5092050;28;20199;-54
2022/11/15 06:33:56;;;;;;;33.83;19.00;;;;;;;9.27;100.00;100011.25;5091598;28;20203;-53
2022/11/15 06:36:23;;;;;;;31.57;18.43;;;;;;;9.33;100.00;100011.16;5091573;28;20219;-53
2022/11/15 06:38:50;;;;;;;30.07;18.17;;;;;;;9.37;100.00;99999.00;5091650;28;20306;-54
2022/11/15 06:41:17;;;;;;;30.73;18.47;;;;;;;9.39;100.00;100000.69;5091328;28;20626;-53
2022/11/15 06:43:44;;;;;;;33.43;20.20;;;;;;;9.61;100.00;100013.28;5091871;28;20204;-56
2022/11/15 06:46:11;;;;;;;34.80;20.67;;;;;;;9.76;100.00;100010.44;5091860;28;20276;-55
2022/11/15 06:48:40;;;;;;;32.33;19.87;;;;;;;9.98;100.00;100022.13;5092028;28;20656;-56
2022/11/15 06:51:07;;;;;;;31.77;18.23;;;;;;;10.01;100.00;100022.09;5091540;28;20196;-56
2022/11/15 06:53:35;;;;;;;30.80;18.80;;;;;;;9.91;100.00;100010.19;5077254;28;20241;-52
2022/11/15 06:56:02;;;;;;;28.77;18.43;;;;;;;10.06;100.00;100014.19;5070588;28;20271;-55
2022/11/15 06:58:29;;;;;;;29.17;17.63;;;;;;;10.17;100.00;100012.25;5070905;28;20277;-53
2022/11/15 07:01:00;;;;;;;28.17;17.33;;;;;;;10.18;100.00;100007.09;5086588;28;20220;-53
2022/11/15 07:03:27;;;;;;;36.53;17.87;;;;;;;10.20;100.00;100017.44;5090357;28;20223;-53
2022/11/15 07:05:57;;;;;;;29.30;18.13;;;;;;;10.32;100.00;100006.81;5090050;28;20704;-56
2022/11/15 07:08:25;;;;;;;31.13;18.33;;;;;;;10.39;100.00;100008.38;5090167;28;20230;-53
2022/11/15 07:10:52;;;;;;;27.47;17.17;;;;;;;10.57;100.00;100009.78;5090445;28;20223;-53
2022/11/15 07:13:18;;;;;;;30.07;17.87;;;;;;;10.67;100.00;99997.44;5091084;28;20219;-56
2022/11/15 07:15:45;;;;;;;29.00;18.27;;;;;;;10.56;100.00;100002.88;5089690;28;20449;-54
2022/11/15 07:18:12;;;;;;;30.90;17.90;;;;;;;10.57;100.00;100003.72;5090703;28;20323;-54
2022/11/15 07:20:40;;;;;;;28.00;16.90;;;;;;;10.82;100.00;100000.56;5090162;28;20732;-53
2022/11/15 07:23:08;;;;;;;30.87;17.93;;;;;;;10.99;100.00;100004.53;5091095;28;20621;-52
2022/11/15 07:25:35;;;;;;;28.30;18.20;;;;;;;11.12;100.00;100000.75;5091124;28;20192;-54
2022/11/15 07:28:03;;;;;;;26.50;16.80;;;;;;;11.17;100.00;100004.94;5090891;28;20203;-53
2022/11/15 07:30:30;;;;;;;25.30;17.43;;;;;;;11.33;100.00;99982.06;5090916;28;20195;-55
2022/11/15 07:32:58;;;;;;;24.23;17.57;;;;;;;11.64;100.00;100001.19;5091161;28;20230;-56
2022/11/15 07:35:25;;;;;;;27.80;18.23;;;;;;;11.82;99.79;100001.66;5090636;28;20646;-55
2022/11/15 07:37:57;;;;;;;30.20;17.70;;;;;;;11.97;98.00;99999.50;5077258;28;20219;-56
2022/11/15 07:40:26;;;;;;;32.50;17.23;;;;;;;12.01;96.82;100000.28;5089308;28;20326;-56
2022/11/15 07:42:56;;;;;;;29.23;17.07;;;;;;;11.84;96.63;100002.47;5089989;28;20700;-56
2022/11/15 07:45:26;;;;;;;26.30;16.23;;;;;;;11.65;97.30;99996.84;5090150;28;20284;-56
2022/11/15 07:47:53;;;;;;;29.80;16.77;;;;;;;11.72;97.04;99994.97;5089386;28;20227;-56
2022/11/15 07:50:21;;;;;;;21.83;15.60;;;;;;;11.76;97.16;99999.19;5088883;28;20191;-56
2022/11/15 07:52:48;;;;;;;29.60;16.30;;;;;;;11.90;96.87;99992.75;5089768;28;20205;-53
2022/11/15 07:55:15;;;;;;;24.47;15.90;;;;;;;11.91;96.67;99996.22;5090145;28;20636;-54
2022/11/15 07:57:43;;;;;;;24.57;16.50;;;;;;;12.07;96.08;99992.31;5090534;28;20602;-53
2022/11/15 08:00:12;;;;;;;28.40;17.60;;;;;;;12.18;95.27;99997.22;5089938;28;20211;-53
2022/11/15 08:02:38;;;;;;;25.37;16.87;;;;;;;12.09;95.63;99989.66;5089616;28;20281;-53
2022/11/15 08:05:06;;;;;;;30.73;17.30;;;;;;;12.02;96.17;99999.38;5089663;28;20198;-53
2022/11/15 08:07:33;;;;;;;31.67;17.17;;;;;;;11.93;95.99;99997.03;5089372;28;20206;-55
2022/11/15 08:10:01;;;;;;;26.83;18.17;;;;;;;11.89;96.42;99990.19;5089639;28;20582;-56
2022/11/15 08:12:28;;;;;;;23.70;16.57;;;;;;;11.77;96.71;99970.56;5089335;28;20195;-56
2022/11/15 08:14:57;;;;;;;25.40;17.37;;;;;;;11.83;97.16;99977.38;5089450;28;20195;-55
2022/11/15 08:17:24;;;;;;;28.10;17.67;;;;;;;11.78;96.89;99976.63;5089146;28;20275;-56
2022/11/15 08:19:51;;;;;;;33.27;18.77;;;;;;;11.78;97.46;99976.63;5086771;28;20211;-56
2022/11/15 08:22:26;;;;;;;32.13;18.10;;;;;;;11.84;97.06;99960.88;5089607;28;20313;-55
2022/11/15 08:24:56;;;;;;;34.70;18.60;;;;;;;12.00;97.22;99976.00;5089919;28;20198;-55
2022/11/15 08:27:27;;;;;;;25.17;17.20;;;;;;;12.00;97.11;99975.16;5089491;28;20193;-55
2022/11/15 08:29:56;;;;;;;28.00;19.07;;;;;;;11.93;98.63;99973.63;5089628;28;20191;-55
2022/11/15 08:32:27;;;;;;;35.27;19.57;;;;;;;11.94;98.94;99977.94;5089777;28;20198;-56
2022/11/15 08:34:54;;;;;;;31.13;20.17;;;;;;;12.06;98.83;99968.94;5089759;28;20612;-55
2022/11/15 08:37:21;;;;;;;27.80;18.80;;;;;;;12.08;98.01;99972.31;5090066;28;20282;-56
2022/11/15 08:39:48;;;;;;;28.43;18.80;;;;;;;12.14;98.02;99967.81;5089608;28;20306;-56
2022/11/15 08:42:16;;;;;;;33.90;19.50;;;;;;;12.22;97.96;99973.66;5088888;28;20209;-56
2022/11/15 08:44:46;;;;;;;37.97;20.77;;;;;;;12.19;98.40;99968.53;5089407;28;20197;-55
2022/11/15 08:47:13;;;;;;;30.67;19.57;;;;;;;12.00;98.81;99965.59;5089493;28;20195;-55
2022/11/15 08:49:41;;;;;;;36.53;20.80;;;;;;;11.97;100.00;99957.00;5089520;28;20191;-55
2022/11/15 08:52:09;;;;;;;39.20;21.47;;;;;;;11.94;100.00;99952.78;5089601;28;20203;-52
2022/11/15 08:54:37;;;;;;;32.47;19.87;;;;;;;12.17;100.00;99965.16;5089542;28;20304;-53
2022/11/15 08:57:04;;;;;;;37.07;20.20;;;;;;;12.14;100.00;99949.59;5089406;28;20195;-56
2022/11/15 08:59:31;;;;;;;35.60;19.97;;;;;;;12.19;100.00;99941.69;5089627;28;20222;-55
2022/11/15 09:02:00;;;;;;;33.70;21.03;;;;;;;12.28;100.00;99939.66;5089184;28;20268;-53
2022/11/15 09:04:29;;;;;;;34.60;21.90;;;;;;;12.43;100.00;99934.88;5093665;28;20285;-54
2022/11/15 09:06:57;;;;;;;40.13;23.13;;;;;;;12.37;100.00;99930.72;5093540;28;20199;-53
2022/11/15 09:09:24;;;;;;;35.50;22.77;;;;;;;12.48;100.00;99933.00;5093608;28;20659;-54
2022/11/15 09:11:53;;;;;;;37.77;23.47;;;;;;;12.54;100.00;99925.84;5093917;28;20199;-53
2022/11/15 09:14:23;;;;;;;35.47;23.47;;;;;;;12.53;100.00;99923.28;5093511;28;20561;-53
2022/11/15 09:16:53;;;;;;;48.47;24.40;;;;;;;12.52;100.00;99916.41;5093422;28;20202;-53
2022/11/15 09:19:22;;;;;;;41.30;24.43;;;;;;;12.46;100.00;99913.97;5093231;28;20274;-53
2022/11/15 09:21:51;;;;;;;43.03;27.00;;;;;;;12.54;100.00;99904.16;5093297;28;20199;-53
2022/11/15 09:24:19;;;;;;;45.27;25.60;;;;;;;12.62;100.00;99897.00;5093482;28;20605;-54
2022/11/15 09:26:46;;;;;;;42.13;26.57;;;;;;;12.69;100.00;99895.91;5093227;28;20596;-53
2022/11/15 09:29:21;;;;;;;40.97;24.90;;;;;;;12.64;100.00;99892.59;5093101;28;20595;-53
2022/11/15 09:31:48;;;;;;;42.53;26.80;;;;;;;12.75;100.00;99894.88;5093234;28;20202;-53
2022/11/15 09:34:15;;;;;;;42.53;26.77;;;;;;;12.82;100.00;99883.34;5093019;28;20228;-53
2022/11/15 09:36:45;;;;;;;42.53;25.57;;;;;;;12.87;100.00;99884.03;5092946;28;20214;-53
2022/11/15 09:39:12;;;;;;;41.33;25.37;;;;;;;12.91;100.00;99880.44;5093310;28;20655;-54
2022/11/15 09:42:08;;;;;;;43.67;25.87;;;;;;;13.03;100.00;99878.28;5092803;28;20229;-54
2022/11/15 09:44:53;;;;;;;40.33;26.30;;;;;;;13.03;100.00;99874.81;5091620;28;20195;-54
2022/11/15 09:47:53;;;;;;;41.60;25.40;;;;;;;12.89;100.00;99869.22;5092886;28;20238;-54
2022/11/15 09:50:35;;;;;;;41.63;25.27;;;;;;;12.87;100.00;99864.03;5092944;28;20698;-57
2022/11/15 09:53:02;;;;;;;41.47;25.40;;;;;;;12.87;100.00;99865.78;5092719;28;20206;-55
2022/11/15 09:55:38;;;;;;;44.47;25.33;;;;;;;12.83;100.00;99859.00;5092868;28;20199;-57
2022/11/15 09:58:17;;;;;;;41.23;25.27;;;;;;;12.84;100.00;99866.75;5092880;28;20676;-55
2022/11/15 10:00:52;;;;;;;39.07;25.03;;;;;;;12.79;100.00;99858.22;5092448;28;20222;-57
2022/11/15 10:03:25;;;;;;;38.60;24.97;;;;;;;12.81;100.00;99848.63;5092572;28;20195;-53
2022/11/15 10:05:58;;;;;;;42.93;24.77;;;;;;;12.83;100.00;99841.63;5092596;28;20207;-54
2022/11/15 10:08:51;;;;;;;43.43;26.63;;;;;;;12.90;100.00;99835.28;5092611;28;20205;-54
2022/11/15 10:11:21;;;;;;;34.90;24.10;;;;;;;12.97;100.00;99838.56;5092702;28;20249;-57
2022/11/15 10:13:53;;;;;;;44.07;26.47;;;;;;;13.02;100.00;99834.88;5091836;28;20202;-57
2022/11/15 10:16:40;;;;;;;43.83;26.97;;;;;;;13.07;100.00;99830.38;5092473;28;20252;-57
2022/11/15 10:19:18;;;;;;;43.07;26.57;;;;;;;13.19;100.00;99828.28;5092126;28;20233;-54
2022/11/15 10:22:01;;;;;;;38.73;26.00;;;;;;;13.07;100.00;99817.34;5092147;28;20315;-54
2022/11/15 10:24:32;;;;;;;44.73;26.37;;;;;;;13.15;100.00;99816.25;5092536;28;20436;-56
2022/11/15 10:26:59;;;;;;;39.37;25.33;;;;;;;13.21;100.00;99821.25;5092152;28;20214;-57
2022/11/15 10:29:27;;;;;;;44.10;26.50;;;;;;;13.26;100.00;99827.16;5091852;28;20203;-54
2022/11/15 10:31:54;;;;;;;47.87;26.77;;;;;;;13.27;100.00;99824.50;5073024;28;20623;-53
2022/11/15 10:34:22;;;;;;;44.17;26.87;;;;;;;13.29;100.00;99808.81;5071045;28;20230;-59
2022/11/15 10:36:56;;;;;;;39.87;26.00;;;;;;;13.43;100.00;99804.78;5070897;28;20581;-54
2022/11/15 10:39:24;;;;;;;45.47;26.20;;;;;;;13.53;99.78;99805.34;5071107;28;20230;-52
2022/11/15 10:41:51;;;;;;;42.43;26.40;;;;;;;13.44;99.61;99783.03;5071082;28;20238;-52
2022/11/15 10:44:26;;;;;;;39.63;24.73;;;;;;;13.68;98.63;99799.53;5071181;28;20602;-52
2022/11/15 10:47:23;;;;;;;40.37;25.43;;;;;;;13.51;98.70;99773.25;5071128;28;20233;-54
2022/11/15 10:49:56;;;;;;;37.67;24.27;;;;;;;13.50;98.21;99786.34;5067909;28;20223;-54
2022/11/15 10:52:24;;;;;;;38.67;24.80;;;;;;;13.51;97.67;99783.69;5070821;28;20269;-53
2022/11/15 10:54:55;;;;;;;38.03;24.93;;;;;;;13.40;98.27;99775.41;5070642;28;20219;-53
2022/11/15 10:57:26;;;;;;;36.23;24.30;;;;;;;13.50;97.94;99776.75;5078263;28;20219;-52
2022/11/15 10:59:56;;;;;;;42.90;25.67;;;;;;;13.57;97.51;99766.94;5087718;28;20215;-52
2022/11/15 11:02:36;;;;;;;39.33;24.97;;;;;;;13.66;97.41;99770.06;5090660;28;20711;-53
2022/11/15 11:05:07;;;;;;;41.10;26.07;;;;;;;13.78;96.86;99771.34;5090304;28;20218;-52
2022/11/15 11:07:36;;;;;;;34.83;24.17;;;;;;;13.66;96.37;99751.78;5090569;28;20223;-53
2022/11/15 11:10:17;;;;;;;39.60;25.53;;;;;;;13.65;96.29;99760.56;5090255;28;20324;-53
2022/11/15 11:12:44;;;;;;;36.73;25.37;;;;;;;13.62;96.35;99755.44;5090781;28;20751;-53
2022/11/15 11:15:14;;;;;;;39.43;25.23;;;;;;;13.59;96.69;99742.50;5090151;28;20290;-53
2022/11/15 11:17:58;;;;;;;38.97;24.57;;;;;;;13.64;96.57;99758.84;5090916;28;20231;-56
2022/11/15 11:20:34;;;;;;;37.93;24.90;;;;;;;13.68;96.21;99747.38;5088093;28;20218;-54
2022/11/15 11:23:21;;;;;;;36.40;24.13;;;;;;;13.60;95.88;99740.75;5079793;28;20322;-54
2022/11/15 11:25:58;;;;;;;40.90;24.07;;;;;;;13.59;95.91;99732.06;5069844;28;20199;-52
2022/11/15 11:28:40;;;;;;;39.97;24.10;;;;;;;13.56;96.26;99724.34;5070768;28;20287;-53
2022/11/15 11:31:18;;;;;;;35.40;24.97;;;;;;;13.59;96.77;99724.25;5073908;28;20201;-53
2022/11/15 11:33:56;;;;;;;39.23;25.17;;;;;;;13.58;96.77;99703.44;5090153;28;20218;-53
2022/11/15 11:36:28;;;;;;;38.97;25.87;;;;;;;13.54;97.56;99710.56;5090458;28;20588;-52